Time;durP1;ratioP1;P1;durP2;ratioP2;P2;SDS_P1;SDS_P2;PMS_P1;PMS_P2;Temp;Humidity;BMP_temperature;BMP_pressure;BME280_temperature;BME280_humidity;BME280_pressure;Samples;Min_cycle;Max_cycle;Signal;HPM_P1;HPM_P2
2023/04/19 00:00:09;;;;;;;9.40;6.03;;;9.50;99.90;;;;;;5066362;28;20052;-89
2023/04/19 00:02:35;;;;;;;12.98;7.32;;;9.50;99.90;;;;;;5063957;28;20032;-88
2023/04/19 00:05:01;;;;;;;11.10;6.72;;;9.90;99.90;;;;;;5049369;28;20056;-89
2023/04/19 00:07:27;;;;;;;9.85;6.57;;;9.40;99.90;;;;;;5058248;28;20059;-88
2023/04/19 00:09:52;;;;;;;9.32;6.43;;;9.40;99.90;;;;;;5050325;28;20048;-89
2023/04/19 00:12:18;;;;;;;14.95;8.45;;;9.40;99.90;;;;;;5047475;28;20048;-88
2023/04/19 00:14:44;;;;;;;10.93;7.07;;;9.40;99.90;;;;;;5068206;28;20047;-88
2023/04/19 00:17:10;;;;;;;10.60;6.43;;;9.80;99.90;;;;;;5046016;28;20152;-88
2023/04/19 00:19:37;;;;;;;11.90;6.32;;;9.40;99.90;;;;;;5054277;28;20041;-89
2023/04/19 00:22:02;;;;;;;12.82;6.95;;;9.30;99.90;;;;;;5038067;28;20076;-89
2023/04/19 00:24:28;;;;;;;10.75;6.63;;;9.30;99.90;;;;;;5049406;28;20479;-88
2023/04/19 00:26:54;;;;;;;9.85;6.50;;;9.20;99.90;;;;;;5046471;28;20045;-88
2023/04/19 00:29:19;;;;;;;11.13;6.78;;;9.20;99.90;;;;;;5053301;28;20052;-88
2023/04/19 00:31:45;;;;;;;9.77;6.30;;;9.20;99.90;;;;;;5056805;28;20155;-88
2023/04/19 00:34:11;;;;;;;10.80;6.47;;;9.20;99.90;;;;;;5057941;28;20043;-89
2023/04/19 00:36:36;;;;;;;10.93;7.10;;;9.10;99.90;;;;;;5051678;28;20036;-88
2023/04/19 00:39:02;;;;;;;11.15;6.90;;;9.10;99.90;;;;;;5029992;28;20576;-87
2023/04/19 00:41:28;;;;;;;12.63;6.90;;;9.10;99.90;;;;;;5073630;28;20028;-88
2023/04/19 00:43:54;;;;;;;16.73;9.18;;;9.10;99.90;;;;;;5073943;28;20067;-88
2023/04/19 00:46:20;;;;;;;14.25;8.80;;;9.20;99.90;;;;;;5049952;28;20040;-88
2023/04/19 00:48:47;;;;;;;15.57;9.15;;;9.00;99.90;;;;;;5078099;28;20052;-89
2023/04/19 00:51:13;;;;;;;15.35;8.45;;;9.00;99.90;;;;;;5075795;28;20112;-88
2023/04/19 00:53:39;;;;;;;13.25;7.30;;;8.90;99.90;;;;;;5053502;28;20044;-89
2023/04/19 00:56:06;;;;;;;11.40;7.30;;;8.90;99.90;;;;;;5049351;28;20351;-88
2023/04/19 00:58:31;;;;;;;11.20;7.20;;;8.90;99.90;;;;;;5062528;28;20041;-89
2023/04/19 01:00:57;;;;;;;11.52;7.10;;;8.90;99.90;;;;;;5045061;28;20070;-87
2023/04/19 01:03:25;;;;;;;11.95;6.47;;;8.90;99.90;;;;;;5051475;28;20044;-88
2023/04/19 01:05:51;;;;;;;12.77;7.68;;;8.90;99.90;;;;;;5051120;28;20072;-89
2023/04/19 01:08:17;;;;;;;12.00;6.68;;;8.80;99.90;;;;;;5067085;28;20145;-89
2023/04/19 01:10:44;;;;;;;10.93;7.05;;;8.80;99.90;;;;;;5052813;28;20784;-88
2023/04/19 01:13:10;;;;;;;12.68;7.00;;;9.00;99.90;;;;;;5052494;28;20040;-89
2023/04/19 01:15:35;;;;;;;11.60;7.57;;;8.80;99.90;;;;;;5037274;28;20043;-89
2023/04/19 01:18:01;;;;;;;13.65;8.02;;;8.70;99.90;;;;;;5067452;28;20040;-89
2023/04/19 01:20:27;;;;;;;13.13;7.47;;;8.70;99.90;;;;;;5048797;28;20144;-88
2023/04/19 01:22:52;;;;;;;12.25;8.18;;;8.70;99.90;;;;;;5048171;28;20052;-88
2023/04/19 01:25:18;;;;;;;13.82;7.85;;;8.70;99.90;;;;;;5046540;28;20040;-88
2023/04/19 01:27:44;;;;;;;15.60;8.05;;;8.70;99.90;;;;;;5067191;28;20048;-88
2023/04/19 01:30:10;;;;;;;13.57;7.95;;;8.60;99.90;;;;;;5067429;28;20697;-88
2023/04/19 01:32:36;;;;;;;12.90;8.32;;;8.60;99.90;;;;;;5064178;28;20062;-88
2023/04/19 01:35:02;;;;;;;15.65;8.82;;;8.60;99.90;;;;;;5064138;28;20040;-88
2023/04/19 01:37:27;;;;;;;15.38;8.63;;;8.60;99.90;;;;;;5072364;28;20044;-88
2023/04/19 01:39:53;;;;;;;12.35;8.65;;;8.60;99.90;;;;;;5071601;28;20040;-87
2023/04/19 01:42:19;;;;;;;13.35;8.50;;;8.80;99.90;;;;;;5049714;28;20040;-88
2023/04/19 01:44:45;;;;;;;16.15;9.35;;;8.50;99.90;;;;;;5061958;28;20695;-88
2023/04/19 01:47:12;;;;;;;13.52;9.27;;;8.50;99.90;;;;;;5048527;28;20045;-89
2023/04/19 01:49:37;;;;;;;16.10;9.05;;;8.50;99.90;;;;;;5065215;28;20039;-88
2023/04/19 01:52:03;;;;;;;16.30;10.25;;;8.40;99.90;;;;;;5070597;28;20370;-89
2023/04/19 01:54:29;;;;;;;16.52;9.13;;;8.40;99.90;;;;;;5048399;28;20072;-88
2023/04/19 01:56:54;;;;;;;17.38;9.88;;;8.50;99.90;;;;;;5048566;28;20094;-88
2023/04/19 01:59:20;;;;;;;19.25;9.48;;;8.40;99.90;;;;;;5043443;28;20491;-89
2023/04/19 02:01:46;;;;;;;15.18;8.98;;;8.50;99.90;;;;;;5064760;28;20045;-90
2023/04/19 02:04:11;;;;;;;13.90;8.80;;;8.50;99.90;;;;;;5043668;28;20049;-88
2023/04/19 02:06:37;;;;;;;18.83;10.18;;;8.40;99.90;;;;;;5027186;28;20036;-89
2023/04/19 02:09:03;;;;;;;12.60;8.73;;;8.30;99.90;;;;;;5047957;28;20040;-89
2023/04/19 02:11:28;;;;;;;14.77;9.23;;;8.60;99.90;;;;;;5048527;28;20040;-87
2023/04/19 02:13:54;;;;;;;14.93;8.57;;;8.30;99.90;;;;;;5045330;28;20578;-89
2023/04/19 02:16:20;;;;;;;15.52;9.32;;;8.30;99.90;;;;;;5067226;28;20041;-89
2023/04/19 02:18:47;;;;;;;14.23;8.88;;;8.20;99.90;;;;;;5042664;28;20059;-89
2023/04/19 02:21:12;;;;;;;14.13;9.07;;;8.30;99.90;;;;;;5067782;28;20035;-89
2023/04/19 02:23:38;;;;;;;14.35;9.05;;;8.20;99.90;;;;;;5049614;28;20704;-89
2023/04/19 02:26:04;;;;;;;16.35;9.57;;;8.20;99.90;;;;;;5063336;28;20055;-89
2023/04/19 02:28:30;;;;;;;16.85;9.15;;;8.20;99.90;;;;;;5044639;28;20143;-88
2023/04/19 02:30:57;;;;;;;13.98;8.85;;;8.20;99.90;;;;;;5048800;28;20626;-88
2023/04/19 02:33:25;;;;;;;15.07;8.18;;;8.10;99.90;;;;;;5063911;28;20419;-89
2023/04/19 02:35:51;;;;;;;15.70;9.10;;;8.10;99.90;;;;;;5056622;28;20067;-89
2023/04/19 02:38:17;;;;;;;13.95;9.60;;;8.10;99.90;;;;;;5046889;28;20036;-89
2023/04/19 02:40:43;;;;;;;12.68;7.97;;;8.10;99.90;;;;;;5068932;28;20743;-88
2023/04/19 02:43:08;;;;;;;15.23;8.82;;;8.10;99.90;;;;;;5068052;28;20039;-89
2023/04/19 02:45:35;;;;;;;13.60;7.97;;;8.10;99.90;;;;;;5056268;28;20054;-90
2023/04/19 02:48:01;;;;;;;12.90;8.15;;;8.10;99.90;;;;;;5047305;28;20048;-90
2023/04/19 02:50:27;;;;;;;12.35;7.90;;;8.10;99.90;;;;;;5056414;28;20370;-88
2023/04/19 02:52:52;;;;;;;11.52;7.38;;;8.00;99.90;;;;;;5048630;28;20054;-89
2023/04/19 02:55:18;;;;;;;11.80;7.60;;;8.10;99.90;;;;;;5056661;28;20040;-88
2023/04/19 02:57:44;;;;;;;14.80;7.43;;;8.10;99.90;;;;;;5066916;28;20048;-89
2023/04/19 03:00:10;;;;;;;11.27;7.07;;;8.00;99.90;;;;;;5065867;28;20040;-89
2023/04/19 03:02:36;;;;;;;14.32;7.88;;;8.00;99.90;;;;;;5052730;28;20044;-89
2023/04/19 03:05:03;;;;;;;11.18;6.95;;;7.90;99.90;;;;;;5039814;28;20044;-89
2023/04/19 03:07:29;;;;;;;14.80;7.65;;;7.90;99.90;;;;;;5049139;28;20077;-88
2023/04/19 03:09:54;;;;;;;11.10;7.00;;;7.90;99.90;;;;;;5051187;28;20048;-89
2023/04/19 03:12:20;;;;;;;11.65;6.95;;;7.90;99.90;;;;;;5069523;28;20033;-89
2023/04/19 03:14:45;;;;;;;12.88;6.78;;;7.90;99.90;;;;;;5056832;28;20052;-89
2023/04/19 03:17:11;;;;;;;13.52;7.22;;;8.20;99.90;;;;;;5056015;28;20127;-90
2023/04/19 03:19:37;;;;;;;12.75;7.50;;;7.80;99.90;;;;;;5069103;28;20044;-90
2023/04/19 03:22:03;;;;;;;14.55;6.85;;;7.80;99.90;;;;;;5072484;28;20083;-90
2023/04/19 03:24:29;;;;;;;11.32;5.85;;;7.80;99.90;;;;;;5069480;28;20690;-90
2023/04/19 03:26:56;;;;;;;10.70;6.57;;;7.70;99.90;;;;;;5066110;28;20036;-89
2023/04/19 03:29:21;;;;;;;13.35;6.80;;;7.70;99.90;;;;;;5075825;28;20112;-89
2023/04/19 03:31:47;;;;;;;11.15;6.78;;;7.70;99.90;;;;;;5051091;28;20425;-90
2023/04/19 03:34:13;;;;;;;12.02;6.65;;;7.70;99.90;;;;;;5068683;28;20032;-89
2023/04/19 03:36:39;;;;;;;10.43;6.95;;;7.60;99.90;;;;;;5069006;28;20044;-89
2023/04/19 03:39:06;;;;;;;10.70;5.95;;;7.60;99.90;;;;;;5074061;28;20044;-87
2023/04/19 03:41:32;;;;;;;10.15;6.57;;;7.50;99.90;;;;;;5052548;28;20049;-89
2023/04/19 03:43:58;;;;;;;10.90;6.55;;;7.50;99.90;;;;;;5049319;28;20051;-89
2023/04/19 03:46:24;;;;;;;12.25;6.88;;;7.40;99.90;;;;;;5054401;28;20044;-89
2023/04/19 03:48:51;;;;;;;10.73;6.30;;;7.50;99.90;;;;;;5051858;28;20052;-89
2023/04/19 03:51:17;;;;;;;10.50;6.43;;;7.40;99.90;;;;;;5072090;28;20122;-87
2023/04/19 03:53:43;;;;;;;15.75;6.60;;;7.40;99.90;;;;;;5066840;28;20048;-89
2023/04/19 03:56:08;;;;;;;11.18;6.53;;;7.40;99.90;;;;;;5051102;28;20391;-89
2023/04/19 03:58:34;;;;;;;11.50;6.63;;;7.30;99.90;;;;;;5071332;28;20135;-90
2023/04/19 04:01:00;;;;;;;10.93;6.25;;;7.30;99.90;;;;;;5071234;28;20095;-91
2023/04/19 04:03:26;;;;;;;14.43;6.22;;;7.30;99.90;;;;;;5053238;28;20064;-89
2023/04/19 04:05:52;;;;;;;10.15;6.15;;;7.30;99.90;;;;;;5053922;28;20575;-89
2023/04/19 04:08:17;;;;;;;11.02;6.50;;;7.20;99.90;;;;;;5059619;28;20044;-89
2023/04/19 04:10:43;;;;;;;9.43;5.78;;;7.20;99.90;;;;;;5053663;28;20040;-89
2023/04/19 04:13:09;;;;;;;12.05;6.78;;;7.20;99.90;;;;;;5056447;28;20453;-89
2023/04/19 04:15:34;;;;;;;13.05;6.43;;;7.20;99.90;;;;;;5068997;28;20044;-89
2023/04/19 04:18:00;;;;;;;10.63;6.22;;;7.20;99.90;;;;;;5055964;28;20046;-89
2023/04/19 04:20:26;;;;;;;13.02;6.35;;;7.40;99.90;;;;;;5071175;28;20062;-90
2023/04/19 04:22:52;;;;;;;10.23;6.10;;;7.10;99.90;;;;;;5070395;28;20075;-90
2023/04/19 04:25:18;;;;;;;8.70;5.82;;;7.10;99.90;;;;;;5048045;28;20455;-89
2023/04/19 04:27:44;;;;;;;11.00;6.38;;;7.00;99.90;;;;;;5056217;28;20085;-89
2023/04/19 04:30:11;;;;;;;11.05;6.85;;;7.00;99.90;;;;;;5048235;28;20045;-91
2023/04/19 04:32:37;;;;;;;10.48;5.88;;;7.00;99.90;;;;;;5038259;28;20091;-88
2023/04/19 04:35:08;;;;;;;11.38;6.30;;;6.90;99.90;;;;;;5055397;28;20044;-89
2023/04/19 04:37:34;;;;;;;10.45;5.63;;;6.90;99.90;;;;;;5056570;28;20048;-90
2023/04/19 04:40:07;;;;;;;11.07;6.20;;;6.90;99.90;;;;;;5055696;28;20572;-89
2023/04/19 04:42:33;;;;;;;11.10;6.50;;;6.90;99.90;;;;;;5072948;28;20690;-89
2023/04/19 04:45:00;;;;;;;13.57;6.30;;;6.90;99.90;;;;;;5048927;28;20048;-89
2023/04/19 04:47:35;;;;;;;11.27;6.13;;;6.90;99.90;;;;;;5051724;28;20048;-88
2023/04/19 04:50:01;;;;;;;11.50;5.85;;;6.90;99.90;;;;;;5065289;28;20098;-88
2023/04/19 04:52:27;;;;;;;15.40;5.97;;;6.90;99.90;;;;;;5055527;28;20692;-90
2023/04/19 04:54:53;;;;;;;12.40;5.57;;;6.80;99.90;;;;;;5050226;28;20040;-88
2023/04/19 04:57:19;;;;;;;13.15;6.63;;;6.80;99.90;;;;;;5070665;28;20078;-90
2023/04/19 04:59:46;;;;;;;11.13;6.15;;;6.80;99.90;;;;;;5034117;28;20044;-89
2023/04/19 05:02:13;;;;;;;10.30;6.18;;;6.80;99.90;;;;;;5055880;28;20476;-89
2023/04/19 05:04:39;;;;;;;9.55;5.72;;;6.80;99.90;;;;;;5045954;28;20048;-90
2023/04/19 05:07:05;;;;;;;9.18;5.75;;;6.80;99.90;;;;;;5065692;28;20048;-89
2023/04/19 05:09:30;;;;;;;10.70;5.90;;;6.80;99.90;;;;;;5037285;28;20551;-87
2023/04/19 05:11:56;;;;;;;10.80;5.72;;;6.80;99.90;;;;;;5073290;28;20092;-89
2023/04/19 05:14:22;;;;;;;10.95;5.57;;;6.80;99.90;;;;;;5034659;28;20749;-88
2023/04/19 05:16:48;;;;;;;13.68;6.22;;;6.80;99.90;;;;;;5050875;28;20040;-89
2023/04/19 05:19:14;;;;;;;9.38;5.30;;;6.80;99.90;;;;;;5068248;28;20044;-90
2023/04/19 05:21:40;;;;;;;8.75;5.25;;;6.80;99.90;;;;;;5070770;28;20042;-89
2023/04/19 05:24:06;;;;;;;8.90;5.03;;;7.70;99.90;;;;;;5081497;28;20044;-90
2023/04/19 05:26:32;;;;;;;10.68;5.15;;;6.80;99.90;;;;;;5054053;28;20044;-90
2023/04/19 05:28:58;;;;;;;8.95;5.30;;;6.80;99.90;;;;;;5071473;28;20060;-89
2023/04/19 05:31:24;;;;;;;9.05;5.25;;;6.80;99.90;;;;;;5063597;28;20446;-90
2023/04/19 05:33:52;;;;;;;9.00;5.13;;;6.90;99.90;;;;;;5053317;28;20113;-88
2023/04/19 05:36:18;;;;;;;10.05;4.82;;;6.90;99.90;;;;;;5056107;28;20054;-88
2023/04/19 05:38:44;;;;;;;11.38;5.38;;;6.90;99.90;;;;;;5061173;28;20056;-89
2023/04/19 05:41:10;;;;;;;8.38;4.57;;;6.90;99.90;;;;;;5057032;28;20052;-89
2023/04/19 05:43:36;;;;;;;9.07;4.50;;;6.90;99.90;;;;;;5076545;28;20079;-88
2023/04/19 05:46:02;;;;;;;8.88;5.25;;;6.90;99.90;;;;;;5077554;28;20028;-88
2023/04/19 05:48:28;;;;;;;10.25;5.05;;;6.80;99.90;;;;;;5054633;28;20051;-90
2023/04/19 05:50:56;;;;;;;12.40;5.28;;;6.80;99.90;;;;;;5076937;28;20086;-89
2023/04/19 05:53:22;;;;;;;8.82;4.85;;;7.20;99.90;;;;;;5057269;28;20223;-89
2023/04/19 05:55:50;;;;;;;9.05;5.07;;;6.90;99.90;;;;;;5054204;28;20057;-88
2023/04/19 05:58:17;;;;;;;10.50;4.93;;;6.90;99.90;;;;;;5070664;28;20048;-89
2023/04/19 06:00:43;;;;;;;9.20;4.32;;;6.80;99.90;;;;;;5070246;28;20042;-89
2023/04/19 06:03:09;;;;;;;8.18;3.88;;;6.80;99.90;;;;;;5064117;28;20028;-89
2023/04/19 06:05:34;;;;;;;9.07;4.60;;;6.90;99.90;;;;;;5047181;28;20544;-90
2023/04/19 06:08:04;;;;;;;9.10;4.00;;;6.90;99.90;;;;;;5071077;28;20045;-89
2023/04/19 06:10:29;;;;;;;7.50;4.03;;;6.90;99.90;;;;;;5075151;28;20052;-89
2023/04/19 06:12:55;;;;;;;7.60;4.05;;;6.90;99.90;;;;;;5074722;28;20093;-88
2023/04/19 06:15:21;;;;;;;9.02;4.25;;;6.90;99.90;;;;;;5059045;28;20060;-93
2023/04/19 06:17:47;;;;;;;7.07;4.30;;;6.90;99.90;;;;;;5057482;28;20066;-90
2023/04/19 06:20:13;;;;;;;8.32;4.80;;;6.90;99.90;;;;;;5083354;28;20036;-94
2023/04/19 06:22:45;;;;;;;9.93;4.22;;;6.90;99.90;;;;;;5056457;28;20119;-88
2023/04/19 06:25:11;;;;;;;7.55;4.38;;;7.00;99.90;;;;;;5069903;28;20043;-88
2023/04/19 06:27:36;;;;;;;9.48;4.50;;;7.00;99.90;;;;;;5071682;28;20044;-89
2023/04/19 06:30:03;;;;;;;11.23;4.20;;;7.00;99.90;;;;;;5068717;28;20052;-90
2023/04/19 06:32:31;;;;;;;9.20;4.00;;;7.60;99.90;;;;;;5051292;28;20040;-89
2023/04/19 06:34:57;;;;;;;8.50;4.45;;;7.70;99.90;;;;;;5072996;28;20253;-89
2023/04/19 06:37:23;;;;;;;8.98;4.32;;;7.20;99.90;;;;;;5039190;28;20118;-88
2023/04/19 06:39:48;;;;;;;12.82;4.25;;;7.30;99.90;;;;;;5057561;28;20040;-89
2023/04/19 06:42:14;;;;;;;8.07;4.00;;;7.30;99.90;;;;;;5052921;28;20040;-87
2023/04/19 06:44:40;;;;;;;10.77;3.63;;;7.40;99.90;;;;;;5050889;28;20043;-85
2023/04/19 06:47:06;;;;;;;8.32;4.00;;;7.40;99.90;;;;;;5069799;28;20043;-84
2023/04/19 06:49:32;;;;;;;7.00;3.33;;;7.50;99.90;;;;;;5069750;28;20044;-86
2023/04/19 06:52:03;;;;;;;7.03;3.35;;;7.50;99.90;;;;;;5039323;28;20277;-86
2023/04/19 06:54:29;;;;;;;9.02;3.40;;;7.60;99.90;;;;;;5076505;28;20036;-86
2023/04/19 06:56:55;;;;;;;7.35;3.50;;;7.60;99.90;;;;;;5034180;28;20067;-87
2023/04/19 06:59:21;;;;;;;8.63;3.58;;;7.70;99.90;;;;;;5051715;28;20036;-87
2023/04/19 07:01:47;;;;;;;7.65;3.33;;;7.80;99.90;;;;;;5069615;28;20047;-86
2023/04/19 07:04:19;;;;;;;6.85;3.28;;;7.80;99.90;;;;;;5053684;28;20039;-85
2023/04/19 07:06:51;;;;;;;7.93;3.13;;;7.80;99.90;;;;;;5067958;28;20423;-86
2023/04/19 07:09:17;;;;;;;6.47;3.20;;;7.90;99.90;;;;;;5056992;28;20052;-85
2023/04/19 07:11:43;;;;;;;6.28;3.10;;;8.00;99.90;;;;;;5055529;28;20087;-85
2023/04/19 07:14:12;;;;;;;6.40;3.13;;;8.00;99.90;;;;;;5071063;28;20483;-86
2023/04/19 07:16:38;;;;;;;7.22;3.60;;;8.10;99.90;;;;;;5050024;28;20044;-86
2023/04/19 07:19:06;;;;;;;7.28;3.13;;;8.10;99.90;;;;;;5073392;28;20118;-85
2023/04/19 07:21:33;;;;;;;8.02;3.33;;;8.10;99.90;;;;;;5049494;28;20588;-87
2023/04/19 07:23:59;;;;;;;4.43;2.40;;;8.20;99.90;;;;;;5036231;28;20123;-86
2023/04/19 07:26:25;;;;;;;8.98;3.15;;;8.20;99.90;;;;;;5027660;28;20044;-87
2023/04/19 07:28:51;;;;;;;5.75;2.80;;;8.20;99.90;;;;;;5065933;28;20048;-86
2023/04/19 07:31:18;;;;;;;5.78;2.60;;;8.30;99.90;;;;;;5065379;28;20370;-86
2023/04/19 07:33:47;;;;;;;7.47;2.67;;;8.30;99.90;;;;;;5055402;28;20041;-86
2023/04/19 07:36:13;;;;;;;6.32;2.92;;;8.30;99.90;;;;;;5066618;28;20051;-85
2023/04/19 07:38:39;;;;;;;6.20;2.33;;;8.40;99.90;;;;;;5067993;28;20459;-85
2023/04/19 07:41:05;;;;;;;4.32;1.98;;;8.50;99.90;;;;;;5034986;28;20040;-86
2023/04/19 07:43:30;;;;;;;7.40;2.60;;;8.50;99.90;;;;;;5050591;28;20596;-86
2023/04/19 07:45:56;;;;;;;6.32;2.50;;;8.60;99.90;;;;;;5053332;28;20062;-86
2023/04/19 07:48:25;;;;;;;7.78;2.90;;;9.60;99.90;;;;;;5071996;28;20045;-86
2023/04/19 07:50:51;;;;;;;7.22;2.63;;;8.70;99.90;;;;;;5056434;28;20036;-86
2023/04/19 07:53:22;;;;;;;6.00;2.20;;;8.70;99.90;;;;;;5049466;28;20052;-86
2023/04/19 07:55:48;;;;;;;5.95;2.90;;;8.80;99.90;;;;;;5068414;28;20084;-87
2023/04/19 07:58:17;;;;;;;8.13;2.85;;;8.90;99.90;;;;;;5047528;28;20206;-86
2023/04/19 08:00:56;;;;;;;6.03;3.10;;;8.90;99.90;;;;;;5048026;28;20080;-85
2023/04/19 08:03:33;;;;;;;4.28;2.17;;;9.00;99.90;;;;;;5069559;28;20490;-85
2023/04/19 08:06:08;;;;;;;6.18;2.40;;;9.00;99.90;;;;;;5068410;28;20119;-85
2023/04/19 08:08:35;;;;;;;;;;;9.10;99.90;;;;;;5069829;28;20115;-85
2023/04/19 08:11:02;;;;;;;4.82;2.35;;;9.20;99.90;;;;;;5064695;28;19920;-86
2023/04/19 08:13:30;;;;;;;7.50;2.83;;;9.30;99.90;;;;;;5047621;28;20044;-85
2023/04/19 08:15:56;;;;;;;5.03;2.35;;;9.40;99.90;;;;;;5065603;28;20043;-85
2023/04/19 08:18:25;;;;;;;6.88;2.67;;;9.20;99.90;;;;;;5052378;28;20052;-85
2023/04/19 08:20:51;;;;;;;4.63;2.03;;;10.10;99.90;;;;;;5055989;28;20146;-86
2023/04/19 08:23:25;;;;;;;4.82;2.05;;;9.80;99.90;;;;;;5069539;28;20544;-86
2023/04/19 08:25:51;;;;;;;5.80;1.98;;;9.90;99.90;;;;;;5035585;28;20036;-86
2023/04/19 08:28:17;;;;;;;6.03;1.90;;;10.00;99.90;;;;;;5044766;28;20074;-85
2023/04/19 08:30:43;;;;;;;5.10;2.20;;;10.10;99.90;;;;;;5073915;28;20041;-85
2023/04/19 08:33:09;;;;;;;3.97;1.90;;;10.30;99.90;;;;;;5067108;28;20047;-84
2023/04/19 08:35:40;;;;;;;5.20;2.28;;;10.40;99.90;;;;;;5065899;28;20036;-86
2023/04/19 08:38:16;;;;;;;6.40;2.33;;;10.50;99.90;;;;;;5053701;28;20137;-85
2023/04/19 08:40:49;;;;;;;3.90;1.75;;;10.70;99.90;;;;;;5046996;28;20040;-85
2023/04/19 08:43:27;;;;;;;3.45;1.63;;;10.80;99.90;;;;;;5053905;28;20476;-85
2023/04/19 08:45:56;;;;;;;3.50;1.75;;;11.00;99.90;;;;;;5071527;28;20462;-84
2023/04/19 08:48:23;;;;;;;4.00;1.70;;;11.10;99.90;;;;;;5051125;28;20486;-84
2023/04/19 08:50:55;;;;;;;4.47;1.70;;;11.20;99.90;;;;;;5052257;28;20040;-85
2023/04/19 08:53:21;;;;;;;4.20;1.80;;;11.40;99.90;;;;;;5046149;28;20068;-84
2023/04/19 08:55:57;;;;;;;5.30;1.60;;;11.50;99.90;;;;;;5068759;28;20183;-85
2023/04/19 08:58:25;;;;;;;5.82;1.77;;;11.60;99.90;;;;;;5028825;28;20123;-85
2023/04/19 09:00:51;;;;;;;4.53;1.60;;;11.80;99.90;;;;;;5045086;28;20036;-85
2023/04/19 09:03:16;;;;;;;5.07;1.60;;;11.90;99.90;;;;;;5060853;28;20422;-85
2023/04/19 09:05:42;;;;;;;4.78;1.52;;;11.90;99.90;;;;;;5046849;28;20036;-84
2023/04/19 09:08:27;;;;;;;3.53;1.50;;;12.00;99.90;;;;;;5029069;28;20049;-84
2023/04/19 09:10:57;;;;;;;3.37;1.37;;;12.10;99.90;;;;;;5045825;28;20051;-85
2023/04/19 09:13:27;;;;;;;3.65;1.80;;;12.20;99.90;;;;;;5050797;28;20285;-83
2023/04/19 09:15:55;;;;;;;3.78;1.20;;;12.30;99.90;;;;;;5054952;28;20087;-85
2023/04/19 09:18:25;;;;;;;3.97;1.67;;;12.40;99.90;;;;;;5066408;28;20036;-85
2023/04/19 09:20:56;;;;;;;3.65;1.40;;;12.40;99.90;;;;;;5067328;28;20045;-85
2023/04/19 09:23:24;;;;;;;4.85;1.90;;;12.60;99.90;;;;;;5067894;28;20039;-85
2023/04/19 09:25:56;;;;;;;3.47;1.55;;;12.60;99.20;;;;;;5063194;28;20036;-85
2023/04/19 09:28:22;;;;;;;4.70;1.30;;;12.70;99.50;;;;;;5051242;28;20067;-85
2023/04/19 09:30:49;;;;;;;4.10;1.27;;;12.90;98.90;;;;;;5055360;28;20048;-86
2023/04/19 09:33:33;;;;;;;4.30;1.63;;;12.90;99.00;;;;;;5062655;28;20052;-85
2023/04/19 09:35:59;;;;;;;3.38;1.30;;;13.00;97.90;;;;;;5028740;28;20106;-85
2023/04/19 09:38:26;;;;;;;4.78;1.77;;;13.00;97.60;;;;;;5030619;28;20040;-85
2023/04/19 09:40:52;;;;;;;5.32;1.45;;;13.10;97.80;;;;;;5053577;28;20085;-85
2023/04/19 09:43:33;;;;;;;4.65;1.50;;;13.20;97.50;;;;;;5065714;28;20067;-86
2023/04/19 09:46:03;;;;;;;11.70;1.60;;;13.30;96.20;;;;;;5031020;28;20040;-86
2023/04/19 09:48:35;;;;;;;5.45;1.63;;;13.40;95.40;;;;;;5047308;28;20074;-86
2023/04/19 09:51:02;;;;;;;4.32;1.45;;;13.40;95.20;;;;;;5055601;28;20562;-85
2023/04/19 09:53:37;;;;;;;5.68;1.80;;;13.60;94.20;;;;;;5068408;28;20040;-85
2023/04/19 09:56:08;;;;;;;4.25;1.50;;;13.60;95.40;;;;;;5042849;28;20093;-85
2023/04/19 09:58:34;;;;;;;4.18;1.40;;;13.80;95.60;;;;;;5076232;28;20597;-85
2023/04/19 10:01:00;;;;;;;5.07;1.35;;;13.90;94.90;;;;;;5051939;28;20040;-85
2023/04/19 10:03:30;;;;;;;3.95;1.58;;;14.10;92.80;;;;;;5071323;28;20054;-85
2023/04/19 10:05:57;;;;;;;4.40;1.20;;;14.10;92.80;;;;;;5049498;28;20154;-84
2023/04/19 10:08:25;;;;;;;7.30;1.02;;;14.20;92.60;;;;;;5052634;28;20037;-86
2023/04/19 10:10:53;;;;;;;5.03;1.13;;;14.20;92.50;;;;;;5066341;28;20442;-86
2023/04/19 10:13:22;;;;;;;4.80;1.42;;;14.30;92.40;;;;;;5032500;28;20036;-84
2023/04/19 10:15:48;;;;;;;5.55;1.25;;;14.40;92.90;;;;;;5054853;28;20047;-85
2023/04/19 10:18:15;;;;;;;4.82;1.50;;;14.50;93.20;;;;;;5071311;28;20071;-85
2023/04/19 10:20:49;;;;;;;4.38;1.85;;;14.50;92.70;;;;;;5056715;28;20055;-85
2023/04/19 10:23:16;;;;;;;3.25;1.30;;;14.60;92.30;;;;;;5049707;28;20482;-85
2023/04/19 10:25:46;;;;;;;3.42;1.23;;;14.70;93.20;;;;;;5070098;28;20035;-85
2023/04/19 10:28:14;;;;;;;5.22;1.10;;;14.80;92.30;;;;;;5072313;28;20048;-85
2023/04/19 10:31:11;;;;;;;4.32;1.20;;;14.80;91.80;;;;;;5050021;28;20083;-85
2023/04/19 10:33:41;;;;;;;6.72;1.10;;;14.90;91.70;;;;;;5051604;28;20056;-86
2023/04/19 10:36:13;;;;;;;6.10;1.20;;;14.90;91.80;;;;;;5066430;28;20487;-86
2023/04/19 10:38:47;;;;;;;3.28;1.10;;;15.00;91.50;;;;;;5055131;28;20049;-85
2023/04/19 10:41:17;;;;;;;3.00;1.27;;;15.00;91.40;;;;;;5066869;28;20098;-84
2023/04/19 10:44:07;;;;;;;2.83;0.80;;;15.10;91.10;;;;;;5074102;28;20039;-85
2023/04/19 10:46:34;;;;;;;2.53;0.90;;;15.20;90.30;;;;;;5072132;28;20055;-85
2023/04/19 10:49:04;;;;;;;2.85;0.90;;;15.30;90.40;;;;;;5063824;28;20059;-85
2023/04/19 10:51:35;;;;;;;4.18;1.00;;;15.40;90.80;;;;;;5047138;28;20455;-86
2023/04/19 10:54:06;;;;;;;3.47;1.30;;;15.50;90.20;;;;;;5050758;28;20036;-94
2023/04/19 10:56:32;;;;;;;2.83;1.23;;;15.60;90.80;;;;;;5061191;28;20108;-85
2023/04/19 10:59:01;;;;;;;3.03;1.10;;;15.70;91.40;;;;;;5054896;28;20044;-83
2023/04/19 11:01:50;;;;;;;4.22;1.13;;;15.70;91.00;;;;;;5057756;28;20097;-86
2023/04/19 11:04:42;;;;;;;4.18;1.20;;;15.80;89.70;;;;;;5077568;28;20067;-84
2023/04/19 11:07:08;;;;;;;7.18;1.15;;;15.80;90.10;;;;;;5055256;28;20056;-86
2023/04/19 11:09:38;;;;;;;3.35;1.05;;;15.90;90.30;;;;;;5066120;28;20044;-85
2023/04/19 11:12:07;;;;;;;7.10;1.38;;;16.00;90.30;;;;;;5069876;28;20080;-85
2023/04/19 11:14:35;;;;;;;7.35;1.17;;;16.10;90.10;;;;;;5051837;28;20725;-84
2023/04/19 11:17:17;;;;;;;6.82;2.03;;;16.20;88.40;;;;;;5053096;28;20046;-85
2023/04/19 11:19:58;;;;;;;3.22;1.13;;;16.10;88.70;;;;;;5051891;28;20435;-84
2023/04/19 11:22:34;;;;;;;2.72;1.10;;;16.10;88.70;;;;;;5050101;28;20076;-84
2023/04/19 11:25:16;;;;;;;2.58;1.10;;;16.10;88.10;;;;;;5059377;28;20044;-84
2023/04/19 11:27:44;;;;;;;4.60;1.38;;;16.10;87.90;;;;;;5047029;28;20064;-85
2023/04/19 11:30:12;;;;;;;3.03;1.00;;;16.20;88.50;;;;;;5055335;28;20047;-85
2023/04/19 11:33:11;;;;;;;2.85;1.38;;;16.30;89.30;;;;;;5055702;28;20097;-86
2023/04/19 11:35:40;;;;;;;5.15;1.30;;;16.50;88.60;;;;;;5039556;28;20044;-84
2023/04/19 11:38:06;;;;;;;3.40;1.48;;;16.60;88.30;;;;;;5052749;28;20041;-83
2023/04/19 11:40:32;;;;;;;3.35;1.40;;;16.70;88.90;;;;;;5049109;28;20094;-89
2023/04/19 11:43:03;;;;;;;4.93;1.63;;;16.70;89.60;;;;;;5055696;28;20061;-84
2023/04/19 11:45:33;;;;;;;4.57;1.90;;;16.80;87.90;;;;;;5050709;28;20602;-84
2023/04/19 11:47:59;;;;;;;6.00;1.77;;;16.80;88.10;;;;;;5044950;28;20486;-84
2023/04/19 11:50:41;;;;;;;4.03;2.15;;;16.80;88.80;;;;;;5034160;28;20044;-85
2023/04/19 11:53:19;;;;;;;5.10;1.85;;;16.80;89.60;;;;;;5045702;28;20048;-84
2023/04/19 11:55:52;;;;;;;4.22;1.73;;;16.80;90.00;;;;;;5061851;28;20048;-84
2023/04/19 11:58:25;;;;;;;4.68;1.70;;;16.80;90.30;;;;;;5049055;28;20048;-84
2023/04/19 12:00:51;;;;;;;3.17;1.77;;;16.90;90.70;;;;;;5068819;28;20075;-84
2023/04/19 12:03:23;;;;;;;5.68;1.90;;;17.00;90.20;;;;;;5044488;28;20136;-84
2023/04/19 12:05:53;;;;;;;5.47;2.10;;;17.00;90.80;;;;;;5048770;28;20132;-84
2023/04/19 12:08:33;;;;;;;5.18;2.50;;;17.10;89.20;;;;;;5063008;28;20482;-84
2023/04/19 12:10:59;;;;;;;4.13;2.08;;;17.10;88.50;;;;;;5070528;28;20044;-85
2023/04/19 12:13:25;;;;;;;5.75;2.50;;;17.20;89.80;;;;;;5064945;28;20495;-86
2023/04/19 12:15:51;;;;;;;8.43;2.25;;;17.30;89.30;;;;;;5034564;28;20827;-86
2023/04/19 12:18:17;;;;;;;5.63;2.47;;;17.30;88.50;;;;;;5067039;28;20139;-87
2023/04/19 12:20:48;;;;;;;5.63;2.35;;;17.30;88.50;;;;;;5051591;28;20333;-87
2023/04/19 12:23:15;;;;;;;4.70;2.00;;;17.30;87.30;;;;;;5035764;28;20819;-86
2023/04/19 12:25:42;;;;;;;6.18;2.40;;;17.30;89.40;;;;;;5055982;28;20044;-86
2023/04/19 12:28:08;;;;;;;4.68;2.22;;;17.30;89.40;;;;;;5072247;28;20091;-87
2023/04/19 12:30:38;;;;;;;5.13;2.00;;;17.30;89.70;;;;;;5050594;28;20131;-86
2023/04/19 12:33:05;;;;;;;3.90;1.95;;;17.30;89.60;;;;;;5069663;28;20378;-86
2023/04/19 12:35:31;;;;;;;4.03;2.03;;;17.30;89.80;;;;;;5039926;28;20536;-86
2023/04/19 12:37:58;;;;;;;5.63;2.08;;;17.40;89.20;;;;;;5048672;28;20044;-86
2023/04/19 12:40:25;;;;;;;6.40;2.15;;;17.50;88.70;;;;;;5038166;28;20435;-87
2023/04/19 12:42:52;;;;;;;5.05;1.92;;;17.50;87.50;;;;;;5045797;28;20046;-86
2023/04/19 12:45:19;;;;;;;6.28;2.25;;;17.40;87.00;;;;;;5032585;28;20125;-86
2023/04/19 12:47:47;;;;;;;3.95;2.05;;;17.40;87.50;;;;;;5073706;28;20044;-86
2023/04/19 12:50:14;;;;;;;6.00;2.03;;;17.50;88.10;;;;;;5071065;28;20108;-86
2023/04/19 12:52:40;;;;;;;4.40;2.20;;;17.50;86.90;;;;;;5032100;28;20055;-86